createdAt,value
2018-08-16T00:00:27.065Z,0.10
2018-08-16T00:01:27.039Z,0.10
2018-08-16T00:02:27.039Z,0.10
2018-08-16T00:03:27.030Z,0.10
2018-08-16T00:04:27.028Z,0.10
2018-08-16T00:05:27.028Z,0.20
2018-08-16T00:06:27.031Z,0.10
2018-08-16T00:07:27.024Z,0.20
2018-08-16T00:08:27.025Z,0.20
2018-08-16T00:09:27.015Z,0.10
2018-08-16T00:10:27.003Z,0.10
2018-08-16T00:11:27.004Z,0.20
2018-08-16T00:12:27.009Z,0.20
2018-08-16T00:13:27.009Z,0.10
2018-08-16T00:14:27.006Z,0.10
2018-08-16T00:15:27.004Z,0.10
2018-08-16T00:16:26.990Z,0.20
2018-08-16T00:17:27.001Z,0.10
2018-08-16T00:18:26.997Z,0.10
2018-08-16T00:19:26.994Z,0.10
2018-08-16T00:20:26.983Z,0.10
2018-08-16T00:21:26.993Z,0.10
2018-08-16T00:22:26.984Z,0.10
2018-08-16T00:23:26.971Z,0.10
2018-08-16T00:24:26.973Z,0.10
2018-08-16T00:25:26.972Z,0.20
2018-08-16T00:26:26.981Z,0.10
2018-08-16T00:27:26.966Z,0.10
2018-08-16T00:28:26.966Z,0.10
2018-08-16T00:29:26.962Z,0.10
2018-08-16T00:30:26.955Z,0.10
2018-08-16T00:31:26.956Z,0.10
2018-08-16T00:32:26.953Z,0.10
2018-08-16T00:33:26.955Z,0.10
2018-08-16T00:34:26.934Z,0.10
2018-08-16T00:35:26.942Z,0.10
2018-08-16T00:36:26.947Z,0.10
2018-08-16T00:37:26.932Z,0.10
2018-08-16T00:38:26.969Z,0.10
2018-08-16T00:39:26.935Z,0.10
2018-08-16T00:40:26.927Z,0.10
2018-08-16T00:41:26.928Z,0.20
2018-08-16T00:42:26.917Z,0.10
2018-08-16T00:43:26.916Z,0.10
2018-08-16T00:44:26.920Z,0.10
2018-08-16T00:45:26.919Z,0.10
2018-08-16T00:46:26.916Z,0.10
2018-08-16T00:47:26.913Z,0.20
2018-08-16T00:48:27.019Z,0.10
2018-08-16T00:49:26.915Z,0.10
2018-08-16T00:50:26.903Z,0.10
2018-08-16T00:51:26.900Z,0.10
2018-08-16T00:52:26.885Z,0.10
2018-08-16T00:53:26.883Z,0.10
2018-08-16T00:54:26.896Z,0.10
2018-08-16T00:55:26.878Z,0.10
2018-08-16T00:56:26.877Z,0.10
2018-08-16T00:57:26.881Z,0.10
2018-08-16T00:58:26.880Z,0.10
2018-08-16T00:59:26.875Z,0.10
2018-08-16T01:00:26.874Z,0.10
2018-08-16T01:01:26.943Z,0.10
2018-08-16T01:02:26.948Z,0.10
2018-08-16T01:03:26.858Z,0.10
2018-08-16T01:04:26.865Z,0.10
2018-08-16T01:05:26.859Z,0.10
2018-08-16T01:06:26.858Z,0.10
2018-08-16T01:07:26.842Z,0.10
2018-08-16T01:08:26.852Z,0.10
2018-08-16T01:09:26.838Z,0.20
2018-08-16T01:10:26.844Z,0.10
2018-08-16T01:11:26.851Z,0.20
2018-08-16T01:12:26.839Z,0.20
2018-08-16T01:13:26.829Z,0.20
2018-08-16T01:14:26.832Z,0.20
2018-08-16T01:15:26.820Z,0.20
2018-08-16T01:16:26.820Z,0.10
2018-08-16T01:17:26.819Z,0.20
2018-08-16T01:18:26.819Z,0.10
2018-08-16T01:19:26.824Z,0.10
2018-08-16T01:20:26.811Z,0.20
2018-08-16T01:21:26.814Z,0.10
2018-08-16T01:22:26.797Z,0.10
2018-08-16T01:23:26.804Z,0.10
2018-08-16T01:24:26.795Z,0.10
2018-08-16T01:25:26.788Z,0.20
2018-08-16T01:26:26.796Z,0.10
2018-08-16T01:27:26.795Z,0.10
2018-08-16T01:28:26.793Z,0.10
2018-08-16T01:29:26.780Z,0.20
2018-08-16T01:30:26.772Z,0.20
2018-08-16T02:04:57.994Z,0.30
2018-08-16T02:05:57.961Z,0.20
2018-08-16T02:06:57.948Z,0.20
2018-08-16T02:07:57.936Z,0.20
2018-08-16T02:08:57.931Z,0.20
2018-08-16T02:09:57.925Z,0.20
2018-08-16T02:10:57.923Z,0.20
2018-08-16T02:11:57.922Z,0.20
2018-08-16T02:12:57.911Z,0.20
2018-08-16T02:13:57.915Z,0.20
2018-08-16T02:14:57.895Z,0.10
2018-08-16T02:15:57.891Z,0.20
2018-08-16T02:16:57.888Z,0.20
2018-08-16T02:17:57.888Z,0.20
2018-08-16T02:18:57.884Z,0.20
2018-08-16T02:19:57.893Z,0.20
2018-08-16T02:20:57.872Z,0.20
2018-08-16T02:21:57.870Z,0.20
2018-08-16T02:22:57.852Z,0.20
2018-08-16T02:23:57.862Z,0.20
2018-08-16T02:24:57.862Z,0.20
2018-08-16T02:25:57.855Z,0.20
2018-08-16T02:26:57.845Z,0.20
2018-08-16T02:27:57.832Z,0.20
2018-08-16T02:28:57.839Z,0.20
2018-08-16T02:29:57.845Z,0.20
2018-08-16T02:30:57.826Z,0.20
2018-08-16T02:31:57.831Z,0.20
2018-08-16T02:32:57.825Z,0.20
2018-08-16T02:33:57.821Z,0.20
2018-08-16T02:34:57.834Z,0.20
2018-08-16T02:35:57.822Z,0.20
2018-08-16T02:36:57.816Z,0.20
2018-08-16T02:37:57.812Z,0.20
2018-08-16T02:38:57.809Z,0.30
2018-08-16T02:39:57.811Z,0.20
2018-08-16T02:40:57.789Z,0.20
2018-08-16T02:41:57.798Z,0.20
2018-08-16T02:42:57.789Z,0.20
2018-08-16T02:43:57.793Z,0.20
2018-08-16T02:44:57.785Z,0.20
2018-08-16T02:45:57.790Z,0.20
2018-08-16T02:46:57.781Z,0.20
2018-08-16T02:47:57.773Z,0.20
2018-08-16T02:48:57.768Z,0.20
2018-08-16T02:49:57.777Z,0.20
2018-08-16T02:50:57.803Z,0.20
2018-08-16T02:51:57.763Z,0.20
2018-08-16T02:52:57.762Z,0.20
2018-08-16T02:53:57.761Z,0.20
2018-08-16T02:54:58.225Z,0.20
2018-08-16T02:55:57.754Z,0.20
2018-08-16T02:56:57.750Z,0.20
2018-08-16T02:57:57.748Z,0.20
2018-08-16T02:58:57.746Z,0.30
2018-08-16T02:59:57.746Z,0.20
2018-08-16T03:00:57.729Z,0.10
2018-08-16T03:01:57.742Z,0.20
2018-08-16T03:02:57.730Z,0.20
2018-08-16T03:03:57.730Z,0.20
2018-08-16T03:04:57.729Z,0.10
2018-08-16T03:05:57.747Z,0.20
2018-08-16T03:06:57.720Z,0.20
2018-08-16T03:07:57.718Z,0.20
2018-08-16T03:08:57.708Z,0.20
2018-08-16T03:09:57.710Z,0.20
2018-08-16T03:10:57.711Z,0.20
2018-08-16T03:11:57.697Z,0.20
2018-08-16T03:12:57.705Z,0.20
2018-08-16T03:13:57.696Z,0.20
2018-08-16T03:14:57.709Z,0.20
2018-08-16T03:15:57.684Z,0.20
2018-08-16T03:16:57.684Z,0.20
2018-08-16T03:17:57.679Z,0.20
2018-08-16T03:18:57.678Z,0.20
2018-08-16T03:19:57.680Z,0.20
2018-08-16T03:20:57.668Z,0.20
2018-08-16T03:21:57.668Z,0.20
2018-08-16T03:22:57.669Z,0.20
2018-08-16T03:23:57.664Z,0.20
2018-08-16T03:24:57.655Z,0.20
2018-08-16T03:25:57.654Z,0.20
2018-08-16T03:26:57.655Z,0.20
2018-08-16T03:27:57.647Z,0.20
2018-08-16T03:28:57.648Z,0.20
2018-08-16T03:29:57.643Z,0.20
2018-08-16T03:30:57.631Z,0.20
2018-08-16T03:31:57.640Z,0.20
2018-08-16T03:32:57.638Z,0.20
2018-08-16T03:33:57.631Z,0.20
2018-08-16T03:34:57.623Z,0.20
2018-08-16T03:35:57.639Z,0.20
2018-08-16T03:36:57.619Z,0.30
2018-08-16T03:37:57.610Z,0.20
2018-08-16T03:38:57.604Z,0.20
2018-08-16T03:39:57.613Z,0.20
2018-08-16T03:40:57.612Z,0.20
2018-08-16T03:41:57.605Z,0.20
2018-08-16T03:42:57.603Z,0.30
2018-08-16T03:43:57.597Z,0.20
2018-08-16T03:44:57.595Z,0.20
2018-08-16T03:45:57.584Z,0.20
2018-08-16T03:46:57.578Z,0.20
2018-08-16T03:47:57.646Z,0.20
2018-08-16T03:48:57.585Z,0.30
2018-08-16T03:49:57.577Z,0.20
2018-08-16T03:50:57.579Z,0.20
2018-08-16T03:51:57.564Z,0.20
2018-08-16T03:52:57.559Z,0.20
2018-08-16T03:53:57.555Z,0.20
2018-08-16T03:54:57.562Z,0.20
2018-08-16T03:55:57.555Z,0.20
2018-08-16T03:56:57.551Z,0.20
2018-08-16T03:57:57.548Z,0.20
2018-08-16T03:58:57.546Z,0.20
2018-08-16T03:59:57.541Z,0.10
2018-08-16T04:00:57.527Z,0.20
2018-08-16T04:01:57.540Z,0.20
2018-08-16T04:02:57.530Z,0.10
2018-08-16T04:03:57.563Z,0.20
2018-08-16T04:04:57.534Z,0.20
2018-08-16T04:05:57.524Z,0.20
2018-08-16T04:06:57.515Z,0.20
2018-08-16T04:07:57.527Z,0.20
2018-08-16T04:08:57.513Z,0.20
2018-08-16T04:09:57.524Z,0.20
2018-08-16T04:10:57.497Z,0.20
2018-08-16T04:11:57.501Z,0.20
2018-08-16T04:12:57.510Z,0.20
2018-08-16T04:13:57.495Z,0.10
2018-08-16T04:14:57.502Z,0.20
2018-08-16T04:15:57.487Z,0.20
2018-08-16T04:16:57.480Z,0.20
2018-08-16T04:17:57.470Z,0.20
2018-08-16T04:18:57.478Z,0.20
2018-08-16T04:19:57.482Z,0.10
2018-08-16T04:20:57.467Z,0.20
2018-08-16T04:21:57.458Z,0.20
2018-08-16T04:22:57.479Z,0.20
2018-08-16T04:23:57.461Z,0.20
2018-08-16T04:24:57.452Z,0.20
2018-08-16T04:25:57.460Z,0.10
2018-08-16T04:26:57.460Z,0.20
2018-08-16T04:27:57.442Z,0.20
2018-08-16T04:28:57.468Z,0.20
2018-08-16T04:29:57.441Z,0.20
2018-08-16T04:30:57.429Z,0.20
2018-08-16T04:31:57.430Z,0.10
2018-08-16T04:32:57.430Z,0.10
2018-08-16T04:33:57.430Z,0.20
2018-08-16T04:34:57.437Z,0.20
2018-08-16T04:35:57.417Z,0.10
2018-08-16T04:36:57.419Z,0.10
2018-08-16T04:37:57.432Z,0.20
2018-08-16T04:38:57.402Z,0.20
2018-08-16T04:39:57.404Z,0.20
2018-08-16T04:40:57.397Z,0.20
2018-08-16T04:41:57.470Z,0.10
2018-08-16T04:42:57.402Z,0.20
2018-08-16T04:43:57.395Z,0.20
2018-08-16T04:44:57.390Z,0.10
2018-08-16T04:45:57.390Z,0.20
2018-08-16T04:46:57.393Z,0.20
2018-08-16T04:47:57.379Z,0.20
2018-08-16T04:48:57.381Z,0.10
2018-08-16T04:49:57.373Z,0.10
2018-08-16T04:50:57.359Z,0.20
2018-08-16T04:51:57.356Z,0.20
2018-08-16T04:52:57.362Z,0.20
2018-08-16T04:53:57.357Z,0.10
2018-08-16T04:54:57.357Z,0.20
2018-08-16T04:55:57.345Z,0.10
2018-08-16T04:56:57.375Z,0.20
2018-08-16T04:57:57.347Z,0.10
2018-08-16T04:58:57.339Z,0.10
2018-08-16T04:59:57.342Z,0.20
2018-08-16T05:00:57.340Z,0.20
2018-08-16T05:01:57.332Z,0.20
2018-08-16T05:02:57.331Z,0.10
2018-08-16T05:03:57.331Z,0.20
2018-08-16T05:04:57.320Z,0.10
2018-08-16T05:05:57.323Z,0.20
2018-08-16T05:06:57.322Z,0.20
2018-08-16T05:07:57.311Z,0.20
2018-08-16T05:08:57.308Z,0.20
2018-08-16T05:09:57.308Z,0.10
2018-08-16T05:10:57.302Z,0.10
2018-08-16T05:11:57.301Z,0.10
2018-08-16T05:12:57.313Z,0.10
2018-08-16T05:13:57.290Z,0.10
2018-08-16T05:14:57.295Z,0.20
2018-08-16T05:15:57.291Z,0.10
2018-08-16T05:16:57.291Z,0.10
2018-08-16T05:17:57.289Z,0.10
2018-08-16T05:18:57.283Z,0.10
2018-08-16T05:19:57.274Z,0.20
2018-08-16T05:20:57.312Z,0.10
2018-08-16T05:21:57.277Z,0.20
2018-08-16T05:22:57.273Z,0.20
2018-08-16T05:23:57.310Z,0.20
2018-08-16T05:24:57.269Z,0.10
2018-08-16T05:25:57.275Z,0.10
2018-08-16T05:26:57.268Z,0.20
2018-08-16T05:27:57.262Z,0.10
2018-08-16T05:28:57.256Z,0.10
2018-08-16T05:29:57.265Z,0.10
2018-08-16T05:30:57.273Z,0.10
2018-08-16T05:31:57.243Z,0.10
2018-08-16T05:32:57.237Z,0.10
2018-08-16T05:33:57.243Z,0.20
2018-08-16T05:34:57.234Z,0.10
2018-08-16T05:35:57.234Z,0.10
2018-08-16T05:36:57.231Z,0.10
2018-08-16T05:37:57.231Z,0.20
2018-08-16T05:38:57.232Z,0.20
2018-08-16T05:39:57.218Z,0.20
2018-08-16T05:40:57.233Z,0.20
2018-08-16T05:41:57.213Z,0.20
2018-08-16T05:42:57.273Z,0.10
2018-08-16T05:43:57.208Z,0.20
2018-08-16T05:44:57.210Z,0.20
2018-08-16T05:45:57.201Z,0.10
2018-08-16T05:46:57.207Z,0.10
2018-08-16T05:47:57.203Z,0.10
2018-08-16T05:48:57.210Z,0.20
2018-08-16T05:49:57.201Z,0.20
2018-08-16T05:50:57.230Z,0.10
2018-08-16T05:51:57.196Z,0.20
2018-08-16T05:52:57.190Z,0.10
2018-08-16T05:53:57.198Z,0.10
2018-08-16T05:54:57.197Z,0.20
2018-08-16T05:55:57.181Z,0.10
2018-08-16T05:56:57.185Z,0.10
2018-08-16T05:57:57.192Z,0.10
2018-08-16T05:58:57.182Z,0.10
2018-08-16T05:59:57.186Z,0.10
2018-08-16T06:00:57.181Z,0.20
2018-08-16T06:01:57.175Z,0.20
2018-08-16T06:02:57.191Z,0.10
2018-08-16T06:03:57.180Z,0.20
2018-08-16T06:04:57.181Z,0.10
2018-08-16T06:05:57.169Z,0.20
2018-08-16T06:06:57.173Z,0.10
2018-08-16T06:07:57.170Z,0.10
2018-08-16T06:08:57.170Z,0.10
2018-08-16T06:09:57.166Z,0.10
2018-08-16T06:10:57.164Z,0.10
2018-08-16T06:11:57.208Z,0.10
2018-08-16T06:12:57.169Z,0.10
2018-08-16T06:13:57.175Z,0.10
2018-08-16T06:14:57.157Z,0.10
2018-08-16T06:15:57.153Z,0.10
2018-08-16T06:16:57.158Z,0.20
2018-08-16T06:17:57.170Z,0.20
2018-08-16T06:18:57.160Z,0.10
2018-08-16T06:19:57.158Z,0.10
2018-08-16T06:20:57.172Z,0.10
2018-08-16T06:21:57.159Z,0.10
2018-08-16T06:22:57.156Z,0.10
2018-08-16T06:23:57.214Z,0.10
2018-08-16T06:24:57.160Z,0.10
2018-08-16T06:25:57.175Z,0.10
2018-08-16T06:26:57.152Z,0.10
2018-08-16T06:27:57.151Z,0.10
2018-08-16T06:28:57.160Z,0.10
2018-08-16T06:29:57.161Z,0.10
2018-08-16T06:30:57.158Z,0.10
2018-08-16T06:31:57.156Z,0.10
2018-08-16T06:32:57.152Z,0.10
2018-08-16T06:33:57.152Z,0.10
2018-08-16T06:34:57.172Z,0.10
2018-08-16T06:35:57.167Z,0.10
2018-08-16T06:36:57.150Z,0.10
2018-08-16T06:37:57.153Z,0.10
2018-08-16T06:38:57.257Z,0.10
2018-08-16T06:39:57.161Z,0.10
2018-08-16T06:40:57.172Z,0.10
2018-08-16T06:41:57.153Z,0.10
2018-08-16T06:42:57.155Z,0.10
2018-08-16T06:43:57.157Z,0.10
2018-08-16T06:44:57.154Z,0.10
2018-08-16T06:45:57.172Z,0.10
2018-08-16T06:46:57.158Z,0.10
2018-08-16T06:47:57.162Z,0.10
2018-08-16T06:48:57.163Z,0.10
2018-08-16T06:49:57.162Z,0.10
2018-08-16T06:50:57.181Z,0.10
2018-08-16T06:51:57.172Z,0.20
2018-08-16T06:52:57.163Z,0.10
2018-08-16T06:53:57.158Z,0.10
2018-08-16T06:54:57.173Z,0.20
2018-08-16T06:55:57.178Z,0.10
2018-08-16T06:56:57.166Z,0.10
2018-08-16T06:57:57.174Z,0.10
2018-08-16T06:58:57.187Z,0.10
2018-08-16T06:59:57.175Z,0.10
2018-08-16T07:00:57.197Z,0.10
2018-08-16T07:01:57.175Z,0.10
2018-08-16T07:02:57.180Z,0.10
2018-08-16T07:03:57.172Z,0.20
2018-08-16T07:04:57.219Z,0.10
2018-08-16T07:05:57.180Z,0.20
2018-08-16T07:06:57.189Z,0.10
2018-08-16T07:07:57.185Z,0.10
2018-08-16T07:08:57.186Z,0.10
2018-08-16T07:09:57.189Z,0.10
2018-08-16T07:10:57.185Z,0.10
2018-08-16T07:11:57.253Z,0.10
2018-08-16T07:12:57.198Z,0.10
2018-08-16T07:13:57.185Z,0.10
2018-08-16T07:14:57.204Z,0.10
2018-08-16T07:15:57.203Z,0.10
2018-08-16T07:16:57.202Z,0.10
2018-08-16T07:17:57.206Z,0.10
2018-08-16T07:18:57.208Z,0.10
2018-08-16T07:19:57.214Z,0.10
2018-08-16T07:20:57.231Z,0.10
2018-08-16T07:21:57.217Z,0.10
2018-08-16T07:22:57.215Z,0.10
2018-08-16T07:23:57.222Z,0.10
2018-08-16T07:24:57.212Z,0.10
2018-08-16T07:25:57.224Z,0.20
2018-08-16T07:26:57.219Z,0.10
2018-08-16T07:27:57.225Z,0.10
2018-08-16T07:28:57.233Z,0.20
2018-08-16T07:29:57.263Z,0.20
2018-08-16T07:30:57.234Z,0.20
2018-08-16T07:31:57.250Z,0.20
2018-08-16T07:32:57.255Z,0.20
2018-08-16T07:33:57.256Z,0.20
2018-08-16T07:34:57.270Z,0.20
2018-08-16T07:35:57.285Z,0.20
2018-08-16T07:36:57.281Z,0.20
2018-08-16T07:37:57.307Z,0.20
2018-08-16T07:38:57.297Z,0.20
2018-08-16T07:39:57.303Z,0.30
2018-08-16T07:40:57.320Z,0.20
2018-08-16T07:41:57.322Z,0.20
2018-08-16T07:42:57.328Z,0.20
2018-08-16T07:43:57.336Z,0.30
2018-08-16T07:44:57.355Z,0.20
2018-08-16T07:45:57.440Z,0.20
2018-08-16T07:46:57.388Z,0.20
2018-08-16T07:47:57.413Z,0.20
2018-08-16T07:48:57.440Z,0.30
2018-08-16T07:49:57.456Z,0.30
2018-08-16T07:50:58.102Z,0.30
2018-08-16T07:51:57.489Z,0.30
2018-08-16T07:52:58.821Z,0.30
2018-08-16T07:53:57.497Z,0.20
2018-08-16T07:54:57.737Z,0.30
2018-08-16T07:55:57.474Z,0.30
2018-08-16T07:56:57.521Z,0.30
2018-08-16T07:57:57.489Z,0.30
2018-08-16T07:58:57.501Z,0.30
2018-08-16T07:59:57.543Z,0.40
2018-08-16T08:00:57.530Z,0.30
2018-08-16T08:01:57.547Z,0.40
2018-08-16T08:02:57.557Z,0.30
2018-08-16T08:03:57.598Z,0.40
2018-08-16T08:04:57.874Z,0.40
2018-08-16T08:05:57.980Z,0.40
2018-08-16T08:06:59.127Z,0.40
2018-08-16T08:07:57.898Z,0.40
2018-08-16T08:08:57.962Z,0.40
2018-08-16T08:09:58.132Z,0.40
2018-08-16T08:10:58.107Z,0.40
2018-08-16T08:11:58.142Z,0.50
2018-08-16T08:12:58.038Z,0.50
2018-08-16T08:13:58.122Z,0.40
2018-08-16T08:14:57.916Z,0.50
2018-08-16T08:15:58.055Z,0.50
2018-08-16T08:16:57.734Z,0.40
2018-08-16T08:17:57.752Z,0.60
2018-08-16T08:18:57.768Z,0.50
2018-08-16T08:19:57.780Z,0.50
2018-08-16T08:20:57.789Z,0.60
2018-08-16T08:21:57.811Z,0.50
2018-08-16T08:22:57.813Z,0.60
2018-08-16T08:23:57.843Z,0.50
2018-08-16T08:24:57.849Z,0.60
2018-08-16T08:25:57.871Z,0.60
2018-08-16T08:26:57.877Z,0.50
2018-08-16T08:27:57.905Z,0.60
2018-08-16T08:28:57.910Z,0.60
2018-08-16T08:29:57.931Z,0.50
2018-08-16T08:30:57.942Z,0.60
2018-08-16T08:31:57.958Z,0.60
2018-08-16T08:32:57.975Z,0.60
2018-08-16T08:33:57.999Z,0.70
2018-08-16T08:34:58.000Z,0.70
2018-08-16T08:35:58.017Z,0.70
2018-08-16T08:36:58.041Z,0.80
2018-08-16T08:37:58.052Z,0.80
2018-08-16T08:38:58.124Z,0.80
2018-08-16T08:39:58.089Z,0.80
2018-08-16T08:40:58.088Z,0.80
2018-08-16T08:41:58.122Z,0.90
2018-08-16T08:42:58.130Z,0.80
2018-08-16T08:43:58.147Z,0.80
2018-08-16T08:44:58.161Z,0.80
2018-08-16T08:45:58.174Z,0.80
2018-08-16T08:46:58.195Z,0.80
2018-08-16T08:47:58.203Z,0.90
2018-08-16T08:48:58.222Z,0.90
2018-08-16T08:49:58.241Z,0.90
2018-08-16T08:50:58.264Z,0.90
2018-08-16T08:51:58.271Z,1.00
2018-08-16T08:52:58.291Z,1.00
2018-08-16T08:53:58.311Z,0.90
2018-08-16T08:54:58.326Z,1.10
2018-08-16T08:55:58.335Z,1.00
2018-08-16T08:56:58.364Z,1.10
2018-08-16T08:57:58.376Z,1.10
2018-08-16T08:58:58.392Z,1.20
2018-08-16T08:59:58.404Z,1.20
2018-08-16T09:00:58.419Z,1.20
2018-08-16T09:01:58.445Z,1.00
2018-08-16T09:02:58.462Z,1.10
2018-08-16T09:03:58.480Z,1.20
2018-08-16T09:04:58.500Z,1.40
2018-08-16T09:05:58.513Z,1.30
2018-08-16T09:06:58.576Z,1.20
2018-08-16T09:07:58.555Z,1.50
2018-08-16T09:08:58.567Z,1.60
2018-08-16T09:09:58.580Z,1.70
2018-08-16T09:10:58.602Z,1.70
2018-08-16T09:11:58.616Z,1.80
2018-08-16T09:12:58.639Z,1.90
2018-08-16T09:13:58.659Z,2.20
2018-08-16T09:14:58.742Z,2.20
2018-08-16T09:15:58.701Z,2.10
2018-08-16T09:16:58.697Z,2.40
2018-08-16T09:17:58.738Z,2.30
2018-08-16T09:18:58.758Z,2.20
2018-08-16T09:19:58.766Z,2.60
2018-08-16T09:20:58.784Z,2.80
2018-08-16T09:21:58.807Z,2.90
2018-08-16T09:22:58.829Z,2.70
2018-08-16T09:23:58.899Z,3.00
2018-08-16T09:24:58.859Z,3.10
2018-08-16T09:25:58.892Z,3.10
2018-08-16T09:26:58.910Z,3.20
2018-08-16T09:27:58.924Z,3.50
2018-08-16T09:28:58.940Z,3.10
2018-08-16T09:29:58.968Z,3.20
2018-08-16T09:30:58.979Z,2.70
2018-08-16T09:31:58.998Z,2.60
2018-08-16T09:32:59.029Z,2.70
2018-08-16T09:33:59.039Z,2.60
2018-08-16T09:34:59.065Z,2.60
2018-08-16T09:35:59.072Z,2.40
2018-08-16T09:36:59.102Z,2.60
2018-08-16T09:37:59.120Z,2.30
2018-08-16T09:38:59.142Z,2.40
2018-08-16T09:39:59.168Z,2.30
2018-08-16T09:40:59.173Z,2.20
2018-08-16T09:41:59.199Z,2.30
2018-08-16T09:42:59.224Z,2.30
2018-08-16T09:43:59.228Z,2.20
2018-08-16T09:44:59.260Z,2.00
2018-08-16T09:45:59.276Z,2.20
2018-08-16T09:46:59.299Z,2.10
2018-08-16T09:47:59.312Z,2.20
2018-08-16T09:48:59.335Z,2.30
2018-08-16T09:49:59.354Z,2.30
2018-08-16T09:50:59.370Z,2.30
2018-08-16T09:51:59.400Z,2.40
2018-08-16T09:52:59.409Z,2.20
2018-08-16T09:53:59.453Z,2.00
2018-08-16T09:54:59.436Z,2.30
2018-08-16T09:55:59.470Z,2.20
2018-08-16T09:56:59.487Z,2.00
2018-08-16T09:57:59.508Z,2.30
2018-08-16T09:58:59.519Z,1.90
2018-08-16T09:59:59.539Z,2.20
2018-08-16T10:00:59.564Z,2.30
2018-08-16T10:01:59.635Z,2.30
2018-08-16T10:02:59.610Z,2.30
2018-08-16T10:03:59.618Z,2.20
2018-08-16T10:04:59.635Z,2.40
2018-08-16T10:05:59.653Z,2.40
2018-08-16T10:06:59.669Z,2.50
2018-08-16T10:07:59.681Z,2.50
2018-08-16T10:08:59.707Z,2.50
2018-08-16T10:09:59.722Z,2.50
2018-08-16T10:10:59.747Z,2.30
2018-08-16T10:11:59.778Z,2.30
2018-08-16T10:12:59.782Z,2.40
2018-08-16T10:13:59.792Z,2.20
2018-08-16T10:14:59.807Z,2.20
2018-08-16T10:15:59.831Z,2.20
2018-08-16T10:16:59.848Z,2.10
2018-08-16T10:17:59.867Z,2.20
2018-08-16T10:18:59.879Z,2.20
2018-08-16T10:19:59.901Z,2.10
2018-08-16T10:20:59.948Z,2.00
2018-08-16T10:21:59.931Z,2.00
2018-08-16T10:22:59.951Z,2.10
2018-08-16T10:23:59.969Z,2.10
2018-08-16T10:24:59.983Z,2.00
2018-08-16T10:26:00.002Z,2.00
2018-08-16T10:27:00.057Z,2.00
2018-08-16T10:28:00.035Z,1.90
2018-08-16T10:29:00.058Z,2.10
2018-08-16T10:30:00.066Z,2.10
2018-08-16T10:31:00.077Z,2.10
2018-08-16T10:32:00.103Z,2.20
2018-08-16T10:33:00.120Z,2.40
2018-08-16T10:34:00.142Z,2.30
2018-08-16T10:35:00.159Z,2.10
2018-08-16T10:36:00.175Z,2.10
2018-08-16T10:37:00.191Z,2.10
2018-08-16T10:38:00.207Z,2.10
2018-08-16T10:39:00.213Z,2.30
2018-08-16T10:40:00.235Z,2.10
2018-08-16T10:41:00.260Z,2.10
2018-08-16T10:42:00.273Z,2.10
2018-08-16T10:43:00.288Z,2.10
2018-08-16T10:44:00.308Z,2.10
2018-08-16T10:45:00.330Z,2.10
2018-08-16T10:46:00.345Z,2.30
2018-08-16T10:47:00.378Z,2.40
2018-08-16T10:48:00.372Z,2.30
2018-08-16T10:49:00.394Z,2.30
2018-08-16T10:50:00.424Z,2.40
2018-08-16T10:51:00.434Z,2.50
2018-08-16T10:52:00.447Z,2.20
2018-08-16T10:53:00.472Z,2.40
2018-08-16T10:54:00.477Z,2.40
2018-08-16T10:55:00.502Z,2.40
2018-08-16T10:56:00.521Z,2.30
2018-08-16T10:57:00.532Z,2.30
2018-08-16T10:58:00.546Z,2.20
2018-08-16T10:59:00.558Z,2.10
2018-08-16T11:00:00.637Z,2.20
2018-08-16T11:01:00.606Z,2.20
2018-08-16T11:02:00.618Z,2.20
2018-08-16T11:03:00.629Z,2.10
2018-08-16T11:04:00.654Z,2.20
2018-08-16T11:05:00.656Z,2.20
2018-08-16T11:06:00.692Z,2.00
2018-08-16T11:07:00.703Z,2.10
2018-08-16T11:08:00.718Z,1.90
2018-08-16T11:09:00.735Z,2.10
2018-08-16T11:10:00.748Z,2.10
2018-08-16T11:11:00.770Z,1.90
2018-08-16T11:12:00.777Z,2.00
2018-08-16T11:13:00.799Z,1.80
2018-08-16T11:14:00.822Z,1.90
2018-08-16T11:15:00.852Z,1.80
2018-08-16T11:16:00.848Z,1.80
2018-08-16T11:17:00.860Z,1.80
2018-08-16T11:18:00.888Z,1.60
2018-08-16T11:19:00.999Z,1.60
2018-08-16T11:20:00.912Z,1.70
2018-08-16T11:21:00.942Z,1.60
2018-08-16T11:22:00.944Z,1.80
2018-08-16T11:23:00.957Z,1.80
2018-08-16T11:24:00.975Z,1.70
2018-08-16T11:25:00.994Z,1.70
2018-08-16T11:26:01.014Z,1.90
2018-08-16T11:27:01.033Z,1.80
2018-08-16T11:28:01.048Z,1.90
2018-08-16T11:29:01.060Z,1.90
2018-08-16T11:30:01.072Z,2.00
2018-08-16T11:31:01.090Z,1.90
2018-08-16T11:32:01.127Z,1.90
2018-08-16T11:33:01.122Z,1.80
2018-08-16T11:34:01.143Z,1.80
2018-08-16T11:35:01.173Z,1.80
2018-08-16T11:36:01.177Z,1.90
2018-08-16T11:37:01.187Z,1.80
2018-08-16T11:38:01.208Z,1.80
2018-08-16T11:39:01.231Z,2.00
2018-08-16T11:40:01.229Z,2.00
2018-08-16T11:41:01.266Z,1.90
2018-08-16T11:42:01.274Z,2.00
2018-08-16T11:43:01.291Z,2.00
2018-08-16T11:44:01.301Z,1.90
2018-08-16T11:45:01.327Z,2.00
2018-08-16T11:46:01.325Z,1.80
2018-08-16T11:47:01.354Z,2.00
2018-08-16T11:48:01.368Z,2.00
2018-08-16T11:49:01.382Z,2.00
2018-08-16T11:50:01.403Z,1.90
2018-08-16T11:51:01.420Z,1.90
2018-08-16T11:52:01.432Z,2.00
2018-08-16T11:53:01.450Z,1.80
2018-08-16T11:54:01.463Z,1.80
2018-08-16T11:55:01.483Z,1.70
2018-08-16T11:56:01.519Z,1.80
2018-08-16T11:57:01.524Z,1.80
2018-08-16T11:58:01.535Z,1.60
2018-08-16T11:59:01.552Z,1.60
2018-08-16T12:00:01.563Z,1.70
2018-08-16T12:01:01.588Z,1.80
2018-08-16T12:02:01.657Z,1.80
2018-08-16T12:03:01.612Z,1.70
2018-08-16T12:04:01.625Z,1.70
2018-08-16T12:05:01.642Z,1.70
2018-08-16T12:06:01.671Z,1.80
2018-08-16T12:07:01.680Z,1.80
2018-08-16T12:08:01.692Z,1.80
2018-08-16T12:09:01.706Z,1.80
2018-08-16T12:10:01.716Z,1.70
2018-08-16T12:11:01.738Z,1.90
2018-08-16T12:12:01.759Z,1.90
2018-08-16T12:13:01.780Z,1.80
2018-08-16T12:14:01.788Z,1.80
2018-08-16T12:15:01.833Z,1.90
2018-08-16T12:16:01.816Z,1.80
2018-08-16T12:17:01.836Z,1.90
2018-08-16T12:18:01.859Z,1.80
2018-08-16T12:19:01.867Z,1.90
2018-08-16T12:20:01.890Z,1.70
2018-08-16T12:21:01.968Z,2.00
2018-08-16T12:22:01.909Z,1.90
2018-08-16T12:23:01.932Z,1.80
2018-08-16T12:24:01.945Z,1.80
2018-08-16T12:25:01.984Z,1.90
2018-08-16T12:26:01.985Z,1.50
2018-08-16T12:27:01.988Z,1.60
2018-08-16T12:28:02.019Z,1.60
2018-08-16T12:29:02.062Z,1.60
2018-08-16T12:30:02.048Z,1.50
2018-08-16T12:31:02.058Z,1.40
2018-08-16T12:32:02.077Z,1.40
2018-08-16T12:33:02.089Z,1.50
2018-08-16T12:34:02.112Z,1.50
2018-08-16T12:35:02.207Z,1.30
2018-08-16T12:36:02.137Z,1.00
2018-08-16T12:37:02.147Z,0.70
2018-08-16T12:38:02.163Z,0.60
2018-08-16T12:39:02.161Z,0.50
2018-08-16T12:40:02.184Z,0.40
2018-08-16T12:41:02.255Z,0.30
2018-08-16T12:42:02.198Z,0.20
2018-08-16T12:43:02.210Z,0.20
2018-08-16T12:44:02.220Z,0.10
2018-08-16T12:45:02.238Z,0.20
2018-08-16T12:46:02.251Z,0.20
2018-08-16T12:47:02.254Z,0.10
2018-08-16T12:48:02.252Z,0.10
2018-08-16T12:49:02.260Z,0.10
2018-08-16T12:50:02.269Z,0.10
2018-08-16T12:51:02.292Z,0.10
2018-08-16T12:52:02.284Z,0.10
2018-08-16T12:53:02.293Z,0.10
2018-08-16T12:54:02.311Z,0.10
2018-08-16T12:55:02.315Z,0.10
2018-08-16T12:56:02.324Z,0.10
2018-08-16T12:57:02.336Z,0.10
2018-08-16T12:58:02.337Z,0.10
2018-08-16T12:59:02.332Z,0.10
2018-08-16T13:00:02.352Z,0.10
2018-08-16T13:01:02.350Z,0.10
2018-08-16T13:02:02.360Z,0.10
2018-08-16T13:03:02.367Z,0.10
2018-08-16T13:04:02.369Z,0.10
2018-08-16T13:05:02.383Z,0.10
2018-08-16T13:06:02.382Z,0.10
2018-08-16T13:07:02.385Z,0.10
2018-08-16T13:08:02.396Z,0.10
2018-08-16T13:09:02.422Z,0.10
2018-08-16T13:10:02.401Z,0.10
2018-08-16T13:11:02.418Z,0.10
2018-08-16T13:12:02.410Z,0.10
2018-08-16T13:13:02.413Z,0.10
2018-08-16T13:14:02.419Z,0.10
2018-08-16T13:15:02.444Z,0.10
2018-08-16T13:16:02.459Z,0.10
2018-08-16T13:17:02.438Z,0.10
2018-08-16T13:18:02.431Z,0.10
2018-08-16T13:19:02.450Z,0.10
2018-08-16T13:20:02.456Z,0.10
2018-08-16T13:21:02.451Z,0.10
2018-08-16T13:22:02.453Z,0.10
2018-08-16T13:23:02.467Z,0.10
2018-08-16T13:24:02.479Z,0.10
2018-08-16T13:25:02.473Z,0.10
2018-08-16T13:26:02.482Z,0.10
2018-08-16T13:27:02.482Z,0.10
2018-08-16T13:28:02.490Z,0.10
2018-08-16T13:29:02.501Z,0.10
2018-08-16T13:30:02.566Z,0.10
2018-08-16T13:31:02.505Z,0.10
2018-08-16T13:32:02.511Z,0.10
2018-08-16T13:33:02.502Z,0.10
2018-08-16T13:34:02.514Z,0.10
2018-08-16T13:35:02.518Z,0.10
2018-08-16T13:36:02.521Z,0.10
2018-08-16T13:37:02.586Z,0.10
2018-08-16T13:38:02.535Z,0.10
2018-08-16T13:39:02.538Z,0.10
2018-08-16T13:40:02.543Z,0.10
2018-08-16T13:41:02.546Z,0.10
2018-08-16T13:42:02.549Z,0.10
2018-08-16T13:43:02.549Z,0.10
2018-08-16T13:44:02.548Z,0.10
2018-08-16T13:45:02.573Z,0.10
2018-08-16T13:46:02.568Z,0.20
2018-08-16T13:47:02.605Z,0.10
2018-08-16T13:48:02.575Z,0.20
2018-08-16T13:49:02.567Z,0.10
2018-08-16T13:50:02.589Z,0.10
2018-08-16T13:51:02.584Z,0.10
2018-08-16T13:52:02.588Z,0.10